sensor_id;sensor_type;location;lat;lon;timestamp;pressure;altitude;pressure_sealevel;temperature;humidity
52291;BME280;39663;45.432;28.050;2023-04-22T00:00:26;100872.22;;;11.46;45.56
52291;BME280;39663;45.432;28.050;2023-04-22T00:00:57;100870.69;;;11.16;45.42
52291;BME280;39663;45.432;28.050;2023-04-22T00:01:29;100871.55;;;11.01;45.57
52291;BME280;39663;45.432;28.050;2023-04-22T00:02:00;100873.04;;;11.31;44.75
52291;BME280;39663;45.432;28.050;2023-04-22T00:02:32;100874.80;;;11.11;45.68
52291;BME280;39663;45.432;28.050;2023-04-22T00:03:03;100872.85;;;11.31;46.81
52291;BME280;39663;45.432;28.050;2023-04-22T00:03:35;100873.42;;;10.98;46.31
52291;BME280;39663;45.432;28.050;2023-04-22T00:04:06;100872.57;;;11.09;44.89
52291;BME280;39663;45.432;28.050;2023-04-22T00:04:38;100872.43;;;11.51;46.01
52291;BME280;39663;45.432;28.050;2023-04-22T00:05:10;100872.13;;;11.69;46.02
52291;BME280;39663;45.432;28.050;2023-04-22T00:05:41;100869.55;;;11.75;44.45
52291;BME280;39663;45.432;28.050;2023-04-22T00:06:13;100868.74;;;11.94;46.29
52291;BME280;39663;45.432;28.050;2023-04-22T00:06:44;100866.67;;;11.32;44.49
52291;BME280;39663;45.432;28.050;2023-04-22T00:07:16;100866.31;;;11.11;44.79
52291;BME280;39663;45.432;28.050;2023-04-22T00:07:48;100864.23;;;11.55;46.22
52291;BME280;39663;45.432;28.050;2023-04-22T00:08:20;100867.04;;;11.87;45.79
52291;BME280;39663;45.432;28.050;2023-04-22T00:08:51;100865.01;;;11.63;44.23
52291;BME280;39663;45.432;28.050;2023-04-22T00:09:23;100867.82;;;11.51;45.50
52291;BME280;39663;45.432;28.050;2023-04-22T00:09:55;100861.43;;;12.06;44.14
52291;BME280;39663;45.432;28.050;2023-04-22T00:10:27;100860.58;;;12.09;44.21
52291;BME280;39663;45.432;28.050;2023-04-22T00:10:58;100864.79;;;11.75;45.69
52291;BME280;39663;45.432;28.050;2023-04-22T00:11:30;100864.20;;;12.01;45.98
52291;BME280;39663;45.432;28.050;2023-04-22T00:12:01;100864.63;;;11.65;45.37
52291;BME280;39663;45.432;28.050;2023-04-22T00:12:33;100864.38;;;12.09;44.34
52291;BME280;39663;45.432;28.050;2023-04-22T00:13:04;100862.99;;;12.04;45.17
52291;BME280;39663;45.432;28.050;2023-04-22T00:13:36;100864.95;;;12.16;43.76
52291;BME280;39663;45.432;28.050;2023-04-22T00:14:07;100863.87;;;11.71;45.59
52291;BME280;39663;45.432;28.050;2023-04-22T00:14:39;100862.26;;;12.18;45.50
52291;BME280;39663;45.432;28.050;2023-04-22T00:15:10;100860.95;;;12.31;45.08
52291;BME280;39663;45.432;28.050;2023-04-22T00:15:42;100861.85;;;12.30;45.26
52291;BME280;39663;45.432;28.050;2023-04-22T00:16:13;100861.78;;;12.16;44.96
52291;BME280;39663;45.432;28.050;2023-04-22T00:16:45;100859.35;;;12.48;43.86
52291;BME280;39663;45.432;28.050;2023-04-22T00:17:16;100862.13;;;12.18;44.39
52291;BME280;39663;45.432;28.050;2023-04-22T00:17:48;100858.30;;;12.18;43.01
52291;BME280;39663;45.432;28.050;2023-04-22T00:18:19;100861.83;;;12.26;44.71
52291;BME280;39663;45.432;28.050;2023-04-22T00:18:51;100856.26;;;12.17;43.18
52291;BME280;39663;45.432;28.050;2023-04-22T00:19:23;100860.64;;;11.73;44.64
52291;BME280;39663;45.432;28.050;2023-04-22T00:19:54;100858.05;;;11.64;43.60
52291;BME280;39663;45.432;28.050;2023-04-22T00:20:26;100859.84;;;11.81;44.93
52291;BME280;39663;45.432;28.050;2023-04-22T00:20:58;100858.44;;;12.04;44.49
52291;BME280;39663;45.432;28.050;2023-04-22T00:21:29;100855.22;;;12.05;43.86
52291;BME280;39663;45.432;28.050;2023-04-22T00:22:01;100856.78;;;12.09;43.77
52291;BME280;39663;45.432;28.050;2023-04-22T00:22:33;100857.70;;;12.49;45.25
52291;BME280;39663;45.432;28.050;2023-04-22T00:23:05;100859.40;;;11.56;43.28
52291;BME280;39663;45.432;28.050;2023-04-22T00:23:37;100856.85;;;10.67;43.35
52291;BME280;39663;45.432;28.050;2023-04-22T00:24:09;100860.18;;;11.10;43.71
52291;BME280;39663;45.432;28.050;2023-04-22T00:24:40;100860.44;;;10.76;45.93
52291;BME280;39663;45.432;28.050;2023-04-22T00:25:12;100862.94;;;11.45;45.51
52291;BME280;39663;45.432;28.050;2023-04-22T00:25:44;100857.89;;;11.42;45.72
52291;BME280;39663;45.432;28.050;2023-04-22T00:26:15;100860.92;;;11.67;44.92
52291;BME280;39663;45.432;28.050;2023-04-22T00:26:47;100862.36;;;11.82;46.02
52291;BME280;39663;45.432;28.050;2023-04-22T00:27:18;100861.16;;;11.94;44.96
52291;BME280;39663;45.432;28.050;2023-04-22T00:27:50;100859.80;;;12.02;45.04
52291;BME280;39663;45.432;28.050;2023-04-22T00:28:21;100863.04;;;11.94;43.64
52291;BME280;39663;45.432;28.050;2023-04-22T00:28:53;100864.28;;;11.96;45.19
52291;BME280;39663;45.432;28.050;2023-04-22T00:29:24;100863.17;;;12.10;45.14
52291;BME280;39663;45.432;28.050;2023-04-22T00:29:56;100863.77;;;12.35;45.33
52291;BME280;39663;45.432;28.050;2023-04-22T00:30:27;100863.21;;;12.32;45.03
52291;BME280;39663;45.432;28.050;2023-04-22T00:30:59;100864.90;;;12.18;45.21
52291;BME280;39663;45.432;28.050;2023-04-22T00:31:31;100865.96;;;12.25;43.43
52291;BME280;39663;45.432;28.050;2023-04-22T00:32:02;100863.22;;;12.26;44.50
52291;BME280;39663;45.432;28.050;2023-04-22T00:32:34;100865.24;;;12.20;45.03
52291;BME280;39663;45.432;28.050;2023-04-22T00:33:06;100865.22;;;12.31;44.46
52291;BME280;39663;45.432;28.050;2023-04-22T00:33:37;100863.64;;;12.02;43.62
52291;BME280;39663;45.432;28.050;2023-04-22T00:34:09;100865.34;;;11.96;43.42
52291;BME280;39663;45.432;28.050;2023-04-22T00:34:41;100866.70;;;11.34;44.03
52291;BME280;39663;45.432;28.050;2023-04-22T00:35:13;100862.11;;;11.85;45.77
52291;BME280;39663;45.432;28.050;2023-04-22T00:35:45;100864.46;;;11.69;45.83
52291;BME280;39663;45.432;28.050;2023-04-22T00:36:17;100868.01;;;11.87;44.76
52291;BME280;39663;45.432;28.050;2023-04-22T00:36:48;100866.27;;;11.90;45.39
52291;BME280;39663;45.432;28.050;2023-04-22T00:37:20;100865.19;;;11.73;44.79
52291;BME280;39663;45.432;28.050;2023-04-22T00:37:51;100868.83;;;11.84;45.37
52291;BME280;39663;45.432;28.050;2023-04-22T00:38:23;100866.69;;;12.18;43.65
52291;BME280;39663;45.432;28.050;2023-04-22T00:38:55;100865.73;;;12.05;45.04
52291;BME280;39663;45.432;28.050;2023-04-22T00:39:26;100865.26;;;12.28;45.18
52291;BME280;39663;45.432;28.050;2023-04-22T00:39:58;100867.21;;;11.92;43.06
52291;BME280;39663;45.432;28.050;2023-04-22T00:40:29;100867.63;;;11.61;43.84
52291;BME280;39663;45.432;28.050;2023-04-22T00:41:02;100868.72;;;11.76;44.82
52291;BME280;39663;45.432;28.050;2023-04-22T00:41:33;100869.97;;;11.78;45.12
52291;BME280;39663;45.432;28.050;2023-04-22T00:42:06;100868.45;;;11.61;43.98
52291;BME280;39663;45.432;28.050;2023-04-22T00:42:38;100872.70;;;11.57;44.96
52291;BME280;39663;45.432;28.050;2023-04-22T00:43:10;100870.56;;;11.75;44.52
52291;BME280;39663;45.432;28.050;2023-04-22T00:43:43;100868.99;;;11.84;43.11
52291;BME280;39663;45.432;28.050;2023-04-22T00:44:14;100873.96;;;11.83;44.14
52291;BME280;39663;45.432;28.050;2023-04-22T00:44:46;100872.91;;;11.64;44.17
52291;BME280;39663;45.432;28.050;2023-04-22T00:45:19;100872.77;;;11.74;45.24
52291;BME280;39663;45.432;28.050;2023-04-22T00:45:51;100874.42;;;11.94;43.32
52291;BME280;39663;45.432;28.050;2023-04-22T00:46:23;100874.52;;;11.76;45.02
52291;BME280;39663;45.432;28.050;2023-04-22T00:46:55;100878.19;;;11.93;45.63
52291;BME280;39663;45.432;28.050;2023-04-22T00:47:27;100875.30;;;11.79;45.44
52291;BME280;39663;45.432;28.050;2023-04-22T00:48:00;100873.38;;;11.83;44.03
52291;BME280;39663;45.432;28.050;2023-04-22T00:48:32;100874.99;;;11.81;44.36
52291;BME280;39663;45.432;28.050;2023-04-22T00:49:05;100873.57;;;12.05;43.28
52291;BME280;39663;45.432;28.050;2023-04-22T00:49:36;100873.95;;;11.70;42.85
52291;BME280;39663;45.432;28.050;2023-04-22T00:50:09;100874.71;;;11.58;43.17
52291;BME280;39663;45.432;28.050;2023-04-22T00:50:40;100876.36;;;11.45;44.37
52291;BME280;39663;45.432;28.050;2023-04-22T00:51:12;100876.70;;;11.23;43.58
52291;BME280;39663;45.432;28.050;2023-04-22T00:51:43;100879.28;;;10.91;45.22
52291;BME280;39663;45.432;28.050;2023-04-22T00:52:15;100875.34;;;11.05;44.87
52291;BME280;39663;45.432;28.050;2023-04-22T00:52:47;100876.95;;;11.37;45.09
52291;BME280;39663;45.432;28.050;2023-04-22T00:53:18;100875.23;;;11.17;45.00
52291;BME280;39663;45.432;28.050;2023-04-22T00:53:49;100878.59;;;11.77;44.07
52291;BME280;39663;45.432;28.050;2023-04-22T00:54:21;100877.03;;;11.53;43.52
52291;BME280;39663;45.432;28.050;2023-04-22T00:54:52;100878.97;;;11.69;44.86
52291;BME280;39663;45.432;28.050;2023-04-22T00:55:24;100877.14;;;11.64;44.12
52291;BME280;39663;45.432;28.050;2023-04-22T00:55:56;100879.06;;;11.77;44.47
52291;BME280;39663;45.432;28.050;2023-04-22T00:56:29;100880.85;;;11.56;43.99
52291;BME280;39663;45.432;28.050;2023-04-22T00:57:02;100881.99;;;11.54;43.68
52291;BME280;39663;45.432;28.050;2023-04-22T00:57:35;100883.02;;;11.50;43.45
52291;BME280;39663;45.432;28.050;2023-04-22T00:58:07;100884.11;;;11.10;44.38
52291;BME280;39663;45.432;28.050;2023-04-22T00:58:40;100886.79;;;11.33;45.70
52291;BME280;39663;45.432;28.050;2023-04-22T00:59:16;100885.46;;;11.30;44.42
52291;BME280;39663;45.432;28.050;2023-04-22T00:59:48;100885.14;;;11.52;44.14
52291;BME280;39663;45.432;28.050;2023-04-22T01:00:21;100884.86;;;11.33;45.39
52291;BME280;39663;45.432;28.050;2023-04-22T01:00:53;100886.18;;;11.60;45.11
52291;BME280;39663;45.432;28.050;2023-04-22T01:01:24;100882.93;;;11.41;45.17
52291;BME280;39663;45.432;28.050;2023-04-22T01:01:56;100883.12;;;11.51;45.10
52291;BME280;39663;45.432;28.050;2023-04-22T01:02:42;100884.82;;;11.69;45.35
52291;BME280;39663;45.432;28.050;2023-04-22T01:03:14;100883.14;;;11.55;43.44
52291;BME280;39663;45.432;28.050;2023-04-22T01:03:47;100882.85;;;11.57;44.44
52291;BME280;39663;45.432;28.050;2023-04-22T01:04:25;100883.33;;;11.44;43.56
52291;BME280;39663;45.432;28.050;2023-04-22T01:04:58;100880.16;;;11.54;44.35
52291;BME280;39663;45.432;28.050;2023-04-22T01:05:31;100882.11;;;11.27;43.95
52291;BME280;39663;45.432;28.050;2023-04-22T01:06:03;100882.73;;;11.20;44.99
52291;BME280;39663;45.432;28.050;2023-04-22T01:06:35;100882.74;;;11.65;44.15
52291;BME280;39663;45.432;28.050;2023-04-22T01:07:07;100882.33;;;11.62;44.83
52291;BME280;39663;45.432;28.050;2023-04-22T01:07:38;100882.26;;;11.52;43.92
52291;BME280;39663;45.432;28.050;2023-04-22T01:08:10;100881.69;;;11.44;43.55
52291;BME280;39663;45.432;28.050;2023-04-22T01:08:42;100883.61;;;11.54;44.72
52291;BME280;39663;45.432;28.050;2023-04-22T01:09:14;100883.73;;;11.44;45.54
52291;BME280;39663;45.432;28.050;2023-04-22T01:09:45;100881.92;;;11.48;44.41
52291;BME280;39663;45.432;28.050;2023-04-22T01:10:18;100882.48;;;11.78;44.12
52291;BME280;39663;45.432;28.050;2023-04-22T01:10:55;100882.26;;;11.71;44.34
52291;BME280;39663;45.432;28.050;2023-04-22T01:11:26;100884.36;;;11.58;43.31
52291;BME280;39663;45.432;28.050;2023-04-22T01:11:59;100884.90;;;11.43;43.84
52291;BME280;39663;45.432;28.050;2023-04-22T01:12:30;100883.14;;;11.40;43.39
52291;BME280;39663;45.432;28.050;2023-04-22T01:13:02;100885.31;;;11.35;44.11
52291;BME280;39663;45.432;28.050;2023-04-22T01:13:33;100885.25;;;11.18;44.56
52291;BME280;39663;45.432;28.050;2023-04-22T01:14:05;100883.49;;;11.38;44.16
52291;BME280;39663;45.432;28.050;2023-04-22T01:14:37;100886.38;;;10.47;44.98
52291;BME280;39663;45.432;28.050;2023-04-22T01:15:09;100887.86;;;10.84;45.30
52291;BME280;39663;45.432;28.050;2023-04-22T01:15:41;100886.46;;;11.01;46.10
52291;BME280;39663;45.432;28.050;2023-04-22T01:16:13;100886.17;;;11.28;44.46
52291;BME280;39663;45.432;28.050;2023-04-22T01:16:45;100886.32;;;11.32;44.26
52291;BME280;39663;45.432;28.050;2023-04-22T01:17:17;100888.82;;;11.29;44.39
52291;BME280;39663;45.432;28.050;2023-04-22T01:17:50;100886.06;;;11.38;44.48
52291;BME280;39663;45.432;28.050;2023-04-22T01:18:23;100888.32;;;11.38;44.32
52291;BME280;39663;45.432;28.050;2023-04-22T01:18:55;100892.18;;;11.31;45.16
52291;BME280;39663;45.432;28.050;2023-04-22T01:19:26;100888.46;;;11.40;44.76
52291;BME280;39663;45.432;28.050;2023-04-22T01:19:58;100886.20;;;11.34;44.87
52291;BME280;39663;45.432;28.050;2023-04-22T01:20:30;100888.70;;;11.03;44.22
52291;BME280;39663;45.432;28.050;2023-04-22T01:21:02;100887.52;;;10.81;44.74
52291;BME280;39663;45.432;28.050;2023-04-22T01:21:34;100888.09;;;10.74;44.59
52291;BME280;39663;45.432;28.050;2023-04-22T01:22:07;100889.90;;;10.88;45.17
52291;BME280;39663;45.432;28.050;2023-04-22T01:22:41;100888.33;;;11.10;45.46
52291;BME280;39663;45.432;28.050;2023-04-22T01:23:18;100889.65;;;11.13;45.00
52291;BME280;39663;45.432;28.050;2023-04-22T01:23:50;100889.97;;;10.97;45.40
52291;BME280;39663;45.432;28.050;2023-04-22T01:24:22;100888.47;;;11.22;44.43
52291;BME280;39663;45.432;28.050;2023-04-22T01:24:53;100890.63;;;10.99;45.22
52291;BME280;39663;45.432;28.050;2023-04-22T01:25:25;100890.26;;;10.88;44.56
52291;BME280;39663;45.432;28.050;2023-04-22T01:25:57;100894.03;;;10.57;45.57
52291;BME280;39663;45.432;28.050;2023-04-22T01:26:29;100891.33;;;10.92;45.90
52291;BME280;39663;45.432;28.050;2023-04-22T01:27:01;100893.43;;;10.80;45.96
52291;BME280;39663;45.432;28.050;2023-04-22T01:27:33;100892.78;;;10.92;45.49
52291;BME280;39663;45.432;28.050;2023-04-22T01:28:05;100890.51;;;11.11;44.78
52291;BME280;39663;45.432;28.050;2023-04-22T01:28:37;100890.40;;;10.90;45.40
52291;BME280;39663;45.432;28.050;2023-04-22T01:29:08;100893.66;;;11.28;46.41
52291;BME280;39663;45.432;28.050;2023-04-22T01:29:40;100890.97;;;11.21;45.26
52291;BME280;39663;45.432;28.050;2023-04-22T01:30:12;100893.04;;;11.19;46.26
52291;BME280;39663;45.432;28.050;2023-04-22T01:30:44;100892.74;;;11.20;45.25
52291;BME280;39663;45.432;28.050;2023-04-22T01:31:16;100894.14;;;11.14;44.48
52291;BME280;39663;45.432;28.050;2023-04-22T01:31:48;100896.23;;;11.09;45.39
52291;BME280;39663;45.432;28.050;2023-04-22T01:32:21;100891.51;;;11.38;46.20
52291;BME280;39663;45.432;28.050;2023-04-22T01:32:52;100892.16;;;11.34;44.50
52291;BME280;39663;45.432;28.050;2023-04-22T01:33:25;100892.47;;;11.23;44.43
52291;BME280;39663;45.432;28.050;2023-04-22T01:33:56;100894.01;;;11.03;45.20
52291;BME280;39663;45.432;28.050;2023-04-22T01:34:29;100895.42;;;11.10;45.42
52291;BME280;39663;45.432;28.050;2023-04-22T01:35:01;100892.49;;;11.23;44.92
52291;BME280;39663;45.432;28.050;2023-04-22T01:35:32;100894.38;;;11.11;46.17
52291;BME280;39663;45.432;28.050;2023-04-22T01:36:04;100892.55;;;11.37;45.54
52291;BME280;39663;45.432;28.050;2023-04-22T01:36:37;100892.58;;;11.31;45.72
52291;BME280;39663;45.432;28.050;2023-04-22T01:37:09;100891.72;;;11.68;44.08
52291;BME280;39663;45.432;28.050;2023-04-22T01:37:40;100890.89;;;11.37;45.18
52291;BME280;39663;45.432;28.050;2023-04-22T01:38:12;100891.69;;;11.50;43.96
52291;BME280;39663;45.432;28.050;2023-04-22T01:38:44;100897.38;;;11.08;46.01
52291;BME280;39663;45.432;28.050;2023-04-22T01:39:17;100899.67;;;11.35;45.03
52291;BME280;39663;45.432;28.050;2023-04-22T01:39:48;100895.37;;;11.12;45.14
52291;BME280;39663;45.432;28.050;2023-04-22T01:40:22;100898.01;;;11.13;45.94
52291;BME280;39663;45.432;28.050;2023-04-22T01:40:55;100897.11;;;11.47;45.64
52291;BME280;39663;45.432;28.050;2023-04-22T01:41:27;100896.00;;;11.64;45.64
52291;BME280;39663;45.432;28.050;2023-04-22T01:41:58;100896.67;;;11.56;45.07
52291;BME280;39663;45.432;28.050;2023-04-22T01:42:30;100895.55;;;11.64;44.68
52291;BME280;39663;45.432;28.050;2023-04-22T01:43:02;100896.71;;;11.49;45.65
52291;BME280;39663;45.432;28.050;2023-04-22T01:43:34;100899.43;;;11.78;45.06
52291;BME280;39663;45.432;28.050;2023-04-22T01:44:06;100895.07;;;11.54;43.71
52291;BME280;39663;45.432;28.050;2023-04-22T01:44:37;100897.12;;;11.91;44.86
52291;BME280;39663;45.432;28.050;2023-04-22T01:45:10;100897.12;;;11.87;45.18
52291;BME280;39663;45.432;28.050;2023-04-22T01:45:41;100896.89;;;11.47;44.39
52291;BME280;39663;45.432;28.050;2023-04-22T01:46:15;100895.31;;;11.67;44.24
52291;BME280;39663;45.432;28.050;2023-04-22T01:46:46;100896.52;;;11.18;43.91
52291;BME280;39663;45.432;28.050;2023-04-22T01:47:18;100894.52;;;11.45;44.88
52291;BME280;39663;45.432;28.050;2023-04-22T01:47:49;100897.38;;;11.38;45.14
52291;BME280;39663;45.432;28.050;2023-04-22T01:48:21;100897.69;;;11.39;46.01
52291;BME280;39663;45.432;28.050;2023-04-22T01:48:52;100896.44;;;11.11;44.65
52291;BME280;39663;45.432;28.050;2023-04-22T01:49:24;100895.58;;;11.48;44.51
52291;BME280;39663;45.432;28.050;2023-04-22T01:49:56;100896.88;;;11.25;45.55
52291;BME280;39663;45.432;28.050;2023-04-22T01:50:27;100898.52;;;11.30;45.43
52291;BME280;39663;45.432;28.050;2023-04-22T01:50:59;100895.36;;;11.23;44.82
52291;BME280;39663;45.432;28.050;2023-04-22T01:51:31;100899.49;;;11.45;46.34
52291;BME280;39663;45.432;28.050;2023-04-22T01:52:02;100894.91;;;11.18;44.25
52291;BME280;39663;45.432;28.050;2023-04-22T01:52:35;100900.11;;;11.57;45.04
52291;BME280;39663;45.432;28.050;2023-04-22T01:53:07;100902.15;;;10.99;45.67
52291;BME280;39663;45.432;28.050;2023-04-22T01:53:38;100899.36;;;10.88;45.80
52291;BME280;39663;45.432;28.050;2023-04-22T01:54:10;100899.25;;;10.86;46.50
52291;BME280;39663;45.432;28.050;2023-04-22T01:54:42;100902.75;;;11.27;45.62
52291;BME280;39663;45.432;28.050;2023-04-22T01:55:13;100905.32;;;11.15;45.93
52291;BME280;39663;45.432;28.050;2023-04-22T01:55:46;100902.42;;;11.30;44.71
52291;BME280;39663;45.432;28.050;2023-04-22T01:56:18;100902.33;;;11.32;46.15
52291;BME280;39663;45.432;28.050;2023-04-22T01:56:51;100904.77;;;11.60;46.37
52291;BME280;39663;45.432;28.050;2023-04-22T01:57:23;100904.49;;;11.48;44.72
52291;BME280;39663;45.432;28.050;2023-04-22T01:57:55;100904.71;;;11.00;46.06
52291;BME280;39663;45.432;28.050;2023-04-22T01:58:28;100902.60;;;11.37;45.31
52291;BME280;39663;45.432;28.050;2023-04-22T01:58:59;100900.11;;;11.19;45.87
52291;BME280;39663;45.432;28.050;2023-04-22T01:59:32;100899.44;;;11.58;45.34
52291;BME280;39663;45.432;28.050;2023-04-22T02:00:05;100900.13;;;11.41;44.96
52291;BME280;39663;45.432;28.050;2023-04-22T02:00:37;100902.38;;;11.42;44.22
52291;BME280;39663;45.432;28.050;2023-04-22T02:01:09;100901.84;;;11.23;46.05
52291;BME280;39663;45.432;28.050;2023-04-22T02:01:41;100899.95;;;11.48;46.32
52291;BME280;39663;45.432;28.050;2023-04-22T02:02:12;100902.66;;;11.38;44.60
52291;BME280;39663;45.432;28.050;2023-04-22T02:02:44;100901.62;;;11.70;45.85
52291;BME280;39663;45.432;28.050;2023-04-22T02:03:16;100903.43;;;11.61;46.03
52291;BME280;39663;45.432;28.050;2023-04-22T02:03:47;100900.74;;;11.78;45.43
52291;BME280;39663;45.432;28.050;2023-04-22T02:04:19;100902.28;;;11.73;45.77
52291;BME280;39663;45.432;28.050;2023-04-22T02:04:50;100903.20;;;11.85;44.84
52291;BME280;39663;45.432;28.050;2023-04-22T02:05:22;100900.24;;;11.86;44.49
52291;BME280;39663;45.432;28.050;2023-04-22T02:05:53;100900.84;;;11.70;45.53
52291;BME280;39663;45.432;28.050;2023-04-22T02:06:25;100902.16;;;11.71;45.75
52291;BME280;39663;45.432;28.050;2023-04-22T02:06:56;100898.02;;;11.55;45.45
52291;BME280;39663;45.432;28.050;2023-04-22T02:07:28;100897.17;;;12.06;44.02
52291;BME280;39663;45.432;28.050;2023-04-22T02:08:01;100901.48;;;11.89;44.36
52291;BME280;39663;45.432;28.050;2023-04-22T02:08:33;100899.83;;;11.92;44.91
52291;BME280;39663;45.432;28.050;2023-04-22T02:09:05;100899.25;;;11.91;44.07
52291;BME280;39663;45.432;28.050;2023-04-22T02:09:36;100900.75;;;12.04;44.58
52291;BME280;39663;45.432;28.050;2023-04-22T02:10:09;100900.25;;;11.66;44.74
52291;BME280;39663;45.432;28.050;2023-04-22T02:10:40;100900.33;;;11.94;44.17
52291;BME280;39663;45.432;28.050;2023-04-22T02:11:12;100899.78;;;11.36;44.65
52291;BME280;39663;45.432;28.050;2023-04-22T02:11:44;100901.14;;;11.42;45.83
52291;BME280;39663;45.432;28.050;2023-04-22T02:12:15;100901.74;;;11.40;44.17
52291;BME280;39663;45.432;28.050;2023-04-22T02:12:52;100900.93;;;11.17;45.04
52291;BME280;39663;45.432;28.050;2023-04-22T02:13:23;100901.87;;;11.66;45.35
52291;BME280;39663;45.432;28.050;2023-04-22T02:13:55;100902.22;;;11.55;44.26
52291;BME280;39663;45.432;28.050;2023-04-22T02:14:27;100900.72;;;11.34;46.00
52291;BME280;39663;45.432;28.050;2023-04-22T02:14:58;100902.17;;;11.64;44.89
52291;BME280;39663;45.432;28.050;2023-04-22T02:15:30;100901.46;;;11.38;45.84
52291;BME280;39663;45.432;28.050;2023-04-22T02:16:02;100900.40;;;11.76;44.05
52291;BME280;39663;45.432;28.050;2023-04-22T02:16:33;100903.66;;;11.70;45.43
52291;BME280;39663;45.432;28.050;2023-04-22T02:17:05;100902.43;;;11.33;46.09
52291;BME280;39663;45.432;28.050;2023-04-22T02:17:37;100902.11;;;11.48;45.38
52291;BME280;39663;45.432;28.050;2023-04-22T02:18:09;100901.05;;;11.26;44.21
52291;BME280;39663;45.432;28.050;2023-04-22T02:18:40;100905.51;;;10.76;44.92
52291;BME280;39663;45.432;28.050;2023-04-22T02:19:12;100904.12;;;10.90;44.44
52291;BME280;39663;45.432;28.050;2023-04-22T02:19:44;100901.45;;;11.11;44.60
52291;BME280;39663;45.432;28.050;2023-04-22T02:20:16;100903.86;;;10.66;45.19
52291;BME280;39663;45.432;28.050;2023-04-22T02:20:47;100904.50;;;10.73;45.17
52291;BME280;39663;45.432;28.050;2023-04-22T02:21:20;100905.26;;;10.82;46.12
52291;BME280;39663;45.432;28.050;2023-04-22T02:21:51;100905.74;;;10.80;45.39
52291;BME280;39663;45.432;28.050;2023-04-22T02:22:24;100906.63;;;11.06;44.73
52291;BME280;39663;45.432;28.050;2023-04-22T02:22:56;100904.34;;;11.07;45.02
52291;BME280;39663;45.432;28.050;2023-04-22T02:23:28;100907.69;;;10.73;46.34
52291;BME280;39663;45.432;28.050;2023-04-22T02:24:00;100907.30;;;10.67;45.16
52291;BME280;39663;45.432;28.050;2023-04-22T02:24:32;100908.05;;;10.79;46.18
52291;BME280;39663;45.432;28.050;2023-04-22T02:25:05;100906.29;;;11.14;45.47
52291;BME280;39663;45.432;28.050;2023-04-22T02:25:37;100906.89;;;11.18;45.54
52291;BME280;39663;45.432;28.050;2023-04-22T02:26:09;100910.06;;;11.13;47.11
52291;BME280;39663;45.432;28.050;2023-04-22T02:26:41;100908.26;;;10.94;45.23
52291;BME280;39663;45.432;28.050;2023-04-22T02:27:13;100909.11;;;11.34;45.80
52291;BME280;39663;45.432;28.050;2023-04-22T02:27:45;100909.91;;;11.16;45.93
52291;BME280;39663;45.432;28.050;2023-04-22T02:28:17;100905.03;;;11.15;46.03
52291;BME280;39663;45.432;28.050;2023-04-22T02:28:49;100908.97;;;11.36;45.37
52291;BME280;39663;45.432;28.050;2023-04-22T02:29:22;100908.09;;;11.36;45.60
52291;BME280;39663;45.432;28.050;2023-04-22T02:29:55;100906.81;;;11.15;45.40
52291;BME280;39663;45.432;28.050;2023-04-22T02:30:27;100906.51;;;10.43;45.41
52291;BME280;39663;45.432;28.050;2023-04-22T02:30:59;100905.78;;;11.01;46.88
52291;BME280;39663;45.432;28.050;2023-04-22T02:31:32;100906.63;;;11.00;45.71
52291;BME280;39663;45.432;28.050;2023-04-22T02:32:03;100906.12;;;11.11;45.18
52291;BME280;39663;45.432;28.050;2023-04-22T02:32:35;100904.79;;;11.36;46.09
52291;BME280;39663;45.432;28.050;2023-04-22T02:33:07;100906.09;;;11.00;45.57
52291;BME280;39663;45.432;28.050;2023-04-22T02:33:39;100905.26;;;11.33;45.97
52291;BME280;39663;45.432;28.050;2023-04-22T02:34:11;100906.70;;;11.51;45.97
52291;BME280;39663;45.432;28.050;2023-04-22T02:34:43;100906.21;;;11.26;45.82
52291;BME280;39663;45.432;28.050;2023-04-22T02:35:15;100906.41;;;11.37;45.44
52291;BME280;39663;45.432;28.050;2023-04-22T02:35:47;100904.50;;;11.73;45.31
52291;BME280;39663;45.432;28.050;2023-04-22T02:36:18;100907.73;;;11.88;45.26
52291;BME280;39663;45.432;28.050;2023-04-22T02:36:50;100905.08;;;11.58;44.29
52291;BME280;39663;45.432;28.050;2023-04-22T02:37:21;100904.12;;;11.66;44.15
52291;BME280;39663;45.432;28.050;2023-04-22T02:37:54;100907.16;;;10.66;45.16
52291;BME280;39663;45.432;28.050;2023-04-22T02:38:25;100910.94;;;11.10;46.14
52291;BME280;39663;45.432;28.050;2023-04-22T02:38:58;100909.62;;;10.95;45.99
52291;BME280;39663;45.432;28.050;2023-04-22T02:39:30;100912.06;;;11.38;44.57
52291;BME280;39663;45.432;28.050;2023-04-22T02:40:01;100911.83;;;11.04;45.47
52291;BME280;39663;45.432;28.050;2023-04-22T02:40:33;100908.41;;;10.93;44.93
52291;BME280;39663;45.432;28.050;2023-04-22T02:41:04;100912.38;;;11.23;46.17
52291;BME280;39663;45.432;28.050;2023-04-22T02:41:37;100910.04;;;11.46;45.66
52291;BME280;39663;45.432;28.050;2023-04-22T02:42:08;100910.68;;;11.58;46.23
52291;BME280;39663;45.432;28.050;2023-04-22T02:42:41;100911.52;;;11.65;45.51
52291;BME280;39663;45.432;28.050;2023-04-22T02:43:13;100912.01;;;11.60;44.64
52291;BME280;39663;45.432;28.050;2023-04-22T02:43:45;100913.49;;;11.54;45.92
52291;BME280;39663;45.432;28.050;2023-04-22T02:44:17;100915.29;;;11.80;45.45
52291;BME280;39663;45.432;28.050;2023-04-22T02:44:48;100912.26;;;11.54;44.01
52291;BME280;39663;45.432;28.050;2023-04-22T02:45:20;100913.70;;;11.64;44.60